Аэропорт: Витебск Восточный. Витебск

ICAO: UMII

METAR:
2022-06-26 11:00:00
UMII 261100Z 17002MPS CAVOK 27/15 Q1022 NOSIG
METAR:
2022-06-26 08:01:00
TAF UMII 260801Z 2609/2618 10003MPS 9999 SCT030 TEMPO 2609/2618 VRB02MPS SCT025